Blue Hill, ME (04614)

2:24 PM EDT on April 19, 2015 (GMT -0400)
The Quarry | | Change Station
CLOSE
Current Station
Personal Weather Station
Location: Blue Hill, ME
Elevation: 0 ft
Nearby Weather Stations
Active Advisory: Coastal Flood Watch

Elev 0 ft 44.39 °N, 68.57 °W | Updated 1 second ago

Overcast
Overcast
49.0 °F
Feels Like 46 °F
N
6.0
Wind Variable Wind from West
Gusts 13.0 mph

Today
High -- | Low -- °F
--% Chance of Precip.
Yesterday
High -- | Low -- °F
Precip. -- in
5:44 AM 7:23 PM
New Moon, 1% visible
Pressure 30.21 in
Visibility 10.0 miles
Clouds Mostly Cloudy 5500 ft
Windchill 46 °F
Dew Point 16 °F
Humidity 25%
Rainfall 0.00 in
Snow Depth Not available.
UV 4 out of 12
Pollen 7.30 out of 12
Air Quality Not available.
Flu Activity Regional
METAR KBHB 191815Z 36005KT 10SM BKN055 11/M02 A3021 RMK AO1

More Conditions Fewer Conditions

Pressure 30.21 in
Visibility 10.0 miles
Clouds Mostly Cloudy 5500 ft
Windchill 46 °F
Dew Point 16 °F
Humidity 25%
Rainfall 0.00 in
Snow Depth Not available.
UV 4 out of 12
Pollen 7.30 out of 12
Air Quality Not available.
Flu Activity Regional
METAR KBHB 191815Z 36005KT 10SM BKN055 11/M02 A3021 RMK AO1

More Conditions Fewer Conditions

10-Day Weather Forecast

Almanac

Astronomy

Apr. 19, 2015 Rise Set
Actual Time
Civil Twilight
Nautical Twilight
Astronomical Twilight
Moon
Length of Visible Light
Length of Day
Tomorrow will be .
, % of the Moon is Illuminated

Today's Extremes

State Highs State Lows

Community

WunderPhotos

Upload Photos

1,814,896 photos uploaded!

WunderBlogs® & News

Nearby

Air Quality

  Air Quality AQ Index Pollutant
Not available.

Snow Depth

Station Depth Elevation

Earthquake Activity

City Distance Mag. Time & Date
Minimum magnitude displayed is 2.5.

Coastal Water Temperatures

Place Temperature

Stations

Nearby Weather Stations

Station Location Temp. Windchill Dew Point Humidity Wind Precip. Elev Updated Type
                   
Coastal Flood Watch
Statement as of 3:51 AM EDT on April 19, 2015

... Coastal Flood Watch in effect from Monday evening through late
Monday night...

The National Weather Service in Caribou has issued a coastal
Flood Watch... which is in effect from Monday evening through late
Monday night.

* Coastal flooding... overwash possible at the time of high tide
late Monday night along the Hancock and Washington County
coasts.

* Timing... around the time of high tide at 1 am Tuesday morning.

* Impacts... overwash possible... with the potential for minor
beach erosion. A few low lying roadways running along the beach
could experience minor sand and rock wash-up.

Precautionary/preparedness actions...

A coastal Flood Watch means that conditions favorable for
flooding are expected to develop. Coastal residents should be
alert for later statements or warnings... and take action to
protect property.



Mcb